Time;durP1;ratioP1;P1;durP2;ratioP2;P2;SDS_P1;SDS_P2;PMS_P1;PMS_P2;Temp;Humidity;BMP_temperature;BMP_pressure;BME280_temperature;BME280_humidity;BME280_pressure;Samples;Min_cycle;Max_cycle;Signal;HPM_P1;HPM_P2
2022/12/20 00:01:59;;;;;;;209.18;89.60;;;-0.20;99.90;;;;;;5087765;28;20024;-76
2022/12/20 00:04:25;;;;;;;190.48;85.70;;;-0.30;99.90;;;;;;5077128;28;20074;-77
2022/12/20 00:06:50;;;;;;;201.95;91.90;;;-0.30;99.90;;;;;;5076949;28;20020;-74
2022/12/20 00:09:16;;;;;;;171.77;79.70;;;-0.40;99.90;;;;;;5075512;28;20616;-76
2022/12/20 00:11:42;;;;;;;197.40;88.50;;;-0.40;99.90;;;;;;5076854;28;20028;-77
2022/12/20 00:14:09;;;;;;;182.35;77.70;;;-0.40;99.90;;;;;;5075479;28;20367;-77
2022/12/20 00:16:36;;;;;;;177.63;77.20;;;-0.40;99.90;;;;;;5076721;28;20041;-75
2022/12/20 00:19:05;;;;;;;192.45;85.65;;;-0.40;99.90;;;;;;5076859;28;20471;-77
2022/12/20 00:21:32;;;;;;;212.23;88.35;;;-0.40;99.90;;;;;;5075577;28;20028;-79
2022/12/20 00:23:58;;;;;;;228.90;96.85;;;-0.40;99.90;;;;;;5076321;28;20078;-78
2022/12/20 00:26:29;;;;;;;295.98;119.97;;;-0.40;99.90;;;;;;5076630;28;20028;-78
2022/12/20 00:28:55;;;;;;;266.27;112.97;;;-0.40;99.90;;;;;;5076998;28;20052;-78
2022/12/20 00:31:23;;;;;;;250.63;112.55;;;-0.40;99.90;;;;;;5076609;28;20021;-77
2022/12/20 00:33:51;;;;;;;257.75;113.32;;;-0.40;99.90;;;;;;5076424;28;20028;-79
2022/12/20 00:36:18;;;;;;;269.63;119.45;;;-0.40;99.90;;;;;;5075242;28;20028;-75
2022/12/20 00:38:45;;;;;;;350.10;148.80;;;-0.40;99.90;;;;;;5076433;28;20046;-77
2022/12/20 00:41:15;;;;;;;244.05;107.25;;;-0.50;99.90;;;;;;5075420;28;20497;-76
2022/12/20 00:43:41;;;;;;;273.63;119.80;;;-0.50;99.90;;;;;;5058439;28;20036;-75
2022/12/20 00:46:09;;;;;;;249.98;105.07;;;-0.60;99.90;;;;;;5074994;28;20033;-76
2022/12/20 00:48:35;;;;;;;235.65;95.45;;;-0.60;99.90;;;;;;5076359;28;20512;-77
2022/12/20 00:51:13;;;;;;;251.45;104.63;;;-0.60;99.90;;;;;;5074919;28;20066;-79
2022/12/20 00:53:40;;;;;;;253.55;106.38;;;-0.70;99.90;;;;;;5074932;28;20025;-78
2022/12/20 00:56:07;;;;;;;244.30;104.50;;;-0.60;99.90;;;;;;5075744;28;20096;-78
2022/12/20 00:58:35;;;;;;;204.93;87.65;;;-0.60;99.90;;;;;;5076089;28;20040;-76
2022/12/20 01:01:01;;;;;;;219.52;92.13;;;-0.60;99.90;;;;;;5075604;28;20020;-77
2022/12/20 01:03:27;;;;;;;245.15;106.50;;;-0.70;99.90;;;;;;5075999;28;20082;-78
2022/12/20 01:06:00;;;;;;;237.15;104.00;;;-0.60;99.90;;;;;;5075627;28;20067;-77
2022/12/20 01:08:28;;;;;;;242.23;104.78;;;-0.60;99.90;;;;;;5075947;28;20062;-76
2022/12/20 01:11:01;;;;;;;219.43;100.70;;;-0.70;99.90;;;;;;5075940;28;20024;-77
2022/12/20 01:13:27;;;;;;;230.52;99.53;;;-0.70;99.90;;;;;;5075485;28;20048;-78
2022/12/20 01:15:53;;;;;;;249.13;105.95;;;-0.70;99.90;;;;;;5075616;28;20448;-77
2022/12/20 01:18:19;;;;;;;246.75;108.93;;;-0.70;99.90;;;;;;5075402;28;20043;-77
2022/12/20 01:20:45;;;;;;;240.90;106.10;;;-0.70;99.90;;;;;;5075571;28;20031;-78
2022/12/20 01:23:10;;;;;;;234.43;101.18;;;-0.70;99.90;;;;;;5074595;28;20032;-78
2022/12/20 01:25:36;;;;;;;242.45;104.53;;;-0.80;99.90;;;;;;5074546;28;20025;-76
2022/12/20 01:28:02;;;;;;;307.77;135.27;;;-0.80;99.90;;;;;;5074790;28;20046;-77
2022/12/20 01:30:28;;;;;;;301.48;128.48;;;-0.80;99.90;;;;;;5075004;28;20016;-78
2022/12/20 01:32:53;;;;;;;281.75;121.68;;;-0.80;99.90;;;;;;5073298;28;20115;-77
2022/12/20 01:35:19;;;;;;;286.60;126.57;;;-0.80;99.90;;;;;;5074662;28;20360;-75
2022/12/20 01:37:45;;;;;;;230.90;103.03;;;-0.80;99.90;;;;;;5075127;28;20020;-76
2022/12/20 01:40:11;;;;;;;233.55;101.50;;;-0.80;99.90;;;;;;5073853;28;20024;-77
2022/12/20 01:42:37;;;;;;;225.95;98.88;;;-0.80;99.90;;;;;;5075273;28;20036;-79
2022/12/20 01:45:12;;;;;;;222.20;99.00;;;-0.80;99.90;;;;;;5073751;28;20024;-76
2022/12/20 01:47:38;;;;;;;230.68;104.03;;;-0.80;99.90;;;;;;5074909;28;20021;-76
2022/12/20 01:50:06;;;;;;;229.93;102.65;;;-0.80;99.90;;;;;;5074982;28;20025;-76
2022/12/20 01:52:37;;;;;;;236.45;104.90;;;-0.80;99.90;;;;;;5073155;28;20063;-75
2022/12/20 01:55:14;;;;;;;236.33;103.70;;;-0.90;99.90;;;;;;5074311;28;20090;-76
2022/12/20 01:57:57;;;;;;;214.82;97.32;;;-0.90;99.90;;;;;;5074341;28;20371;-77
2022/12/20 02:00:23;;;;;;;212.68;91.70;;;-0.90;99.90;;;;;;5074099;28;20016;-77
2022/12/20 02:02:49;;;;;;;291.58;128.00;;;-0.90;99.90;;;;;;5073411;28;20058;-77
2022/12/20 02:05:18;;;;;;;276.08;119.40;;;-0.90;99.90;;;;;;5073750;28;20025;-76
2022/12/20 02:07:47;;;;;;;238.52;106.90;;;-0.90;99.90;;;;;;5074052;28;20033;-75
2022/12/20 02:10:14;;;;;;;253.80;108.70;;;-0.90;99.90;;;;;;5074007;28;20040;-75
2022/12/20 02:12:45;;;;;;;247.77;102.45;;;-0.90;99.90;;;;;;5067512;28;20031;-76
2022/12/20 02:15:31;;;;;;;240.30;102.50;;;-0.90;99.90;;;;;;5073880;28;20031;-75
2022/12/20 02:18:08;;;;;;;236.40;100.15;;;-0.90;99.90;;;;;;5068281;28;20036;-77
2022/12/20 02:20:51;;;;;;;240.13;102.75;;;-1.00;99.90;;;;;;5068781;28;20021;-77
2022/12/20 02:23:53;;;;;;;271.45;113.53;;;-0.90;99.90;;;;;;5072112;28;20021;-76
2022/12/20 02:26:55;;;;;;;273.27;117.78;;;-0.90;99.90;;;;;;5073907;28;20489;-76
2022/12/20 02:29:47;;;;;;;286.83;120.40;;;-0.90;99.90;;;;;;5070118;28;20043;-75
2022/12/20 02:32:25;;;;;;;;;;;-0.90;99.90;;;;;;5049865;28;20029;-76
2022/12/20 02:34:51;;;;;;;295.48;123.65;;;-0.90;99.90;;;;;;5072402;28;19954;-77
2022/12/20 02:37:17;;;;;;;302.92;131.20;;;-0.90;99.90;;;;;;5073137;28;20020;-77
2022/12/20 02:39:45;;;;;;;261.35;111.80;;;-0.90;99.90;;;;;;5073364;28;20016;-77
2022/12/20 02:42:14;;;;;;;245.82;105.45;;;-1.00;99.90;;;;;;5073435;28;20029;-76
2022/12/20 02:45:14;;;;;;;245.35;102.30;;;-1.10;99.90;;;;;;5072042;28;20024;-75
2022/12/20 02:48:10;;;;;;;248.30;107.00;;;-1.10;99.90;;;;;;5071727;28;20158;-76
2022/12/20 02:50:49;;;;;;;251.70;102.45;;;-1.20;99.90;;;;;;5063512;28;20039;-75
2022/12/20 02:53:16;;;;;;;299.73;104.93;;;-1.10;99.90;;;;;;5073051;28;20028;-76
2022/12/20 02:55:46;;;;;;;271.05;107.00;;;-1.20;99.90;;;;;;5072045;28;20024;-76
2022/12/20 02:58:25;;;;;;;301.42;111.80;;;-1.20;99.90;;;;;;5073353;28;20389;-75
2022/12/20 03:00:55;;;;;;;430.92;137.38;;;-1.30;99.90;;;;;;5071769;28;20448;-76
2022/12/20 03:03:21;;;;;;;534.50;132.30;;;-1.30;99.90;;;;;;5071910;28;20476;-78
2022/12/20 03:05:49;;;;;;;537.42;117.13;;;-1.40;99.90;;;;;;5073030;28;20499;-76
2022/12/20 03:08:16;;;;;;;626.67;130.63;;;-1.50;99.90;;;;;;5071722;28;20181;-78
2022/12/20 03:10:42;;;;;;;597.35;118.03;;;-1.60;99.90;;;;;;5072840;28;20367;-75
2022/12/20 03:13:09;;;;;;;485.40;114.68;;;-1.70;99.90;;;;;;5073005;28;20024;-76
2022/12/20 03:15:35;;;;;;;558.95;121.13;;;-1.70;99.90;;;;;;5071364;28;20370;-77
2022/12/20 03:18:01;;;;;;;548.13;110.45;;;-1.80;99.90;;;;;;5072430;28;20123;-78
2022/12/20 03:20:27;;;;;;;453.02;121.15;;;-1.80;99.90;;;;;;5073310;28;20034;-75
2022/12/20 03:22:53;;;;;;;452.23;99.80;;;-1.80;99.90;;;;;;5072769;28;20028;-75
2022/12/20 03:25:19;;;;;;;485.90;112.25;;;-1.90;99.90;;;;;;5073129;28;20051;-76
2022/12/20 03:27:45;;;;;;;614.53;129.20;;;-1.90;99.90;;;;;;5073236;28;20032;-77
2022/12/20 03:30:11;;;;;;;817.75;151.43;;;-1.90;99.90;;;;;;5071208;28;20021;-76
2022/12/20 03:32:37;;;;;;;444.60;116.20;;;-1.90;99.90;;;;;;5072918;28;20024;-75
2022/12/20 03:35:03;;;;;;;717.42;123.70;;;-1.80;99.90;;;;;;5072949;28;20383;-76
2022/12/20 03:37:29;;;;;;;497.15;113.72;;;-1.80;99.90;;;;;;5071886;28;20528;-76
2022/12/20 03:39:55;;;;;;;616.17;137.10;;;-1.80;99.90;;;;;;5072836;28;20108;-78
2022/12/20 03:42:21;;;;;;;647.28;154.50;;;-1.80;99.90;;;;;;5072326;28;20024;-76
2022/12/20 03:44:47;;;;;;;562.97;134.90;;;-1.80;99.90;;;;;;5072949;28;20081;-76
2022/12/20 03:47:13;;;;;;;782.38;173.90;;;-1.80;99.90;;;;;;5072461;28;20031;-76
2022/12/20 03:49:38;;;;;;;704.13;177.02;;;-1.80;99.90;;;;;;5071272;28;20478;-77
2022/12/20 03:52:04;;;;;;;630.15;150.07;;;-1.80;99.90;;;;;;5072693;28;20066;-75
2022/12/20 03:54:30;;;;;;;644.25;140.73;;;-1.80;99.90;;;;;;5072349;28;20120;-75
2022/12/20 03:56:56;;;;;;;702.30;139.50;;;-1.80;99.90;;;;;;5072236;28;20463;-75
2022/12/20 03:59:21;;;;;;;597.92;123.07;;;-1.80;99.90;;;;;;5072948;28;20443;-76
2022/12/20 04:01:47;;;;;;;564.42;119.80;;;-1.80;99.90;;;;;;5073303;28;20173;-75
2022/12/20 04:04:14;;;;;;;578.80;137.18;;;-1.80;99.90;;;;;;5073124;28;20020;-76
2022/12/20 04:06:41;;;;;;;566.35;110.65;;;-1.80;99.90;;;;;;5072083;28;20021;-77
2022/12/20 04:09:07;;;;;;;566.22;132.60;;;-1.80;99.90;;;;;;5071913;28;20389;-75
2022/12/20 04:11:33;;;;;;;627.42;127.18;;;-1.80;99.90;;;;;;5072785;28;20024;-76
2022/12/20 04:13:58;;;;;;;533.38;122.40;;;-1.80;99.90;;;;;;5072959;28;20035;-76
2022/12/20 04:16:28;;;;;;;672.20;150.27;;;-1.80;99.90;;;;;;5072408;28;20111;-77
2022/12/20 04:18:54;;;;;;;554.17;128.10;;;-1.70;99.90;;;;;;5076002;28;20043;-77
2022/12/20 04:21:33;;;;;;;639.78;135.68;;;-1.70;99.90;;;;;;5076036;28;20021;-75
2022/12/20 04:24:01;;;;;;;653.45;146.73;;;-1.60;99.90;;;;;;5075961;28;21579;-78
2022/12/20 04:26:27;;;;;;;579.30;124.40;;;-1.60;99.90;;;;;;5075540;28;20039;-75
2022/12/20 04:28:53;;;;;;;794.25;121.93;;;-1.50;99.90;;;;;;5074594;28;20025;-77
2022/12/20 04:31:19;;;;;;;768.65;142.05;;;-1.50;99.90;;;;;;5075804;28;20078;-75
2022/12/20 04:33:46;;;;;;;580.22;121.53;;;-1.50;99.90;;;;;;5070764;28;20032;-76
2022/12/20 04:36:12;;;;;;;630.60;123.75;;;-1.40;99.90;;;;;;5076036;28;20032;-76
2022/12/20 04:38:38;;;;;;;642.83;116.70;;;-1.40;99.90;;;;;;5074315;28;20024;-76
2022/12/20 04:41:04;;;;;;;543.15;94.65;;;-1.40;99.90;;;;;;5074547;28;20020;-76
2022/12/20 04:43:29;;;;;;;531.95;97.30;;;-1.40;99.90;;;;;;5075555;28;20367;-75
2022/12/20 04:45:56;;;;;;;520.90;96.53;;;-1.40;99.90;;;;;;5075244;28;20067;-76
2022/12/20 04:48:25;;;;;;;772.53;104.00;;;-1.30;99.90;;;;;;5075659;28;20024;-75
2022/12/20 04:50:52;;;;;;;675.00;102.30;;;-1.30;99.90;;;;;;5075786;28;20407;-76
2022/12/20 04:56:03;;;;;;;608.42;109.85;;;-1.20;99.90;;;;;;5070730;28;20139;-78
2022/12/20 04:58:29;;;;;;;679.00;105.25;;;-1.20;99.90;;;;;;5075681;28;20016;-75
2022/12/20 05:00:55;;;;;;;723.70;110.68;;;-1.10;99.90;;;;;;5075124;28;20099;-78
2022/12/20 05:03:22;;;;;;;672.67;107.47;;;-1.20;99.90;;;;;;5075288;28;20028;-75
2022/12/20 05:05:48;;;;;;;773.65;118.30;;;-1.20;99.90;;;;;;5075125;28;20024;-76
2022/12/20 05:08:14;;;;;;;666.35;103.82;;;-1.10;99.90;;;;;;5074424;28;20062;-77
2022/12/20 05:10:40;;;;;;;715.60;105.43;;;-1.10;99.90;;;;;;5073471;28;20056;-75
2022/12/20 05:13:07;;;;;;;812.55;106.30;;;-1.10;99.90;;;;;;5074684;28;20509;-78
2022/12/20 05:15:33;;;;;;;1012.08;116.90;;;-1.10;99.90;;;;;;5075188;28;20066;-78
2022/12/20 05:17:59;;;;;;;692.95;103.88;;;-1.10;99.90;;;;;;5074505;28;20106;-77
2022/12/20 05:20:26;;;;;;;1005.40;111.78;;;-1.10;99.90;;;;;;5075089;28;20440;-75
2022/12/20 05:28:32;;;;;;;693.03;106.32;;;-1.10;99.90;;;;;;5072144;28;20038;-77
2022/12/20 05:30:58;;;;;;;829.38;136.88;;;-1.10;99.90;;;;;;5074214;28;20091;-77
2022/12/20 05:33:24;;;;;;;1053.45;135.23;;;-1.10;99.90;;;;;;5073981;28;20352;-75
2022/12/20 05:35:50;;;;;;;1072.53;122.68;;;-1.10;99.90;;;;;;5074050;28;20075;-76
2022/12/20 05:38:16;;;;;;;928.38;117.78;;;-1.10;99.90;;;;;;5073550;28;20028;-76
2022/12/20 05:40:42;;;;;;;667.13;115.57;;;-1.10;99.90;;;;;;5075089;28;20020;-76
2022/12/20 05:43:08;;;;;;;796.95;130.25;;;-1.10;99.90;;;;;;5074097;28;20131;-78
2022/12/20 05:45:34;;;;;;;663.65;120.43;;;-1.00;99.90;;;;;;5074657;28;20021;-78
2022/12/20 05:48:00;;;;;;;698.28;129.50;;;-1.10;99.90;;;;;;5074360;28;20052;-76
2022/12/20 05:50:26;;;;;;;728.15;114.28;;;-1.20;99.90;;;;;;5067711;28;20027;-75
2022/12/20 05:52:52;;;;;;;692.60;108.78;;;-1.20;99.90;;;;;;5073687;28;20028;-74
2022/12/20 05:55:17;;;;;;;713.67;113.47;;;-1.30;99.90;;;;;;5073667;28;20020;-78
2022/12/20 05:57:43;;;;;;;642.58;116.95;;;-1.40;99.90;;;;;;5072921;28;20070;-76
2022/12/20 06:00:10;;;;;;;551.72;103.90;;;-1.40;99.90;;;;;;5071922;28;20017;-78
2022/12/20 06:02:36;;;;;;;679.58;112.10;;;-1.40;99.90;;;;;;5074581;28;20025;-76
2022/12/20 06:05:02;;;;;;;623.28;111.43;;;-1.30;99.90;;;;;;5074902;28;20352;-76
2022/12/20 06:07:28;;;;;;;628.50;108.32;;;-1.30;99.90;;;;;;5074447;28;20028;-75
2022/12/20 06:09:57;;;;;;;703.83;127.55;;;-1.40;99.90;;;;;;5074524;28;20017;-76
2022/12/20 06:12:23;;;;;;;982.38;135.48;;;-1.40;99.90;;;;;;5074507;28;20032;-76
2022/12/20 06:14:49;;;;;;;673.22;119.18;;;-1.30;99.90;;;;;;5074610;28;20024;-76
2022/12/20 06:17:15;;;;;;;660.05;116.28;;;-1.40;99.90;;;;;;5072681;28;20031;-79
2022/12/20 06:19:40;;;;;;;684.85;133.35;;;-1.40;99.90;;;;;;5074766;28;20151;-77
2022/12/20 06:22:07;;;;;;;928.33;138.45;;;-1.30;99.90;;;;;;5073119;28;20074;-76
2022/12/20 06:24:34;;;;;;;964.67;134.82;;;-1.30;99.90;;;;;;5074387;28;20017;-77
2022/12/20 06:27:02;;;;;;;1083.97;135.68;;;-1.30;99.90;;;;;;5073848;28;20071;-76
2022/12/20 06:29:28;;;;;;;872.35;123.82;;;-1.40;99.90;;;;;;5074688;28;20025;-76
2022/12/20 06:31:55;;;;;;;1096.72;129.25;;;-1.30;99.90;;;;;;5074140;28;20024;-78
2022/12/20 06:34:21;;;;;;;838.10;137.73;;;-1.30;99.90;;;;;;5072975;28;20107;-75
2022/12/20 06:36:47;;;;;;;731.92;128.73;;;-1.20;99.90;;;;;;5073048;28;20055;-77
2022/12/20 06:39:13;;;;;;;773.58;152.23;;;-1.20;99.90;;;;;;5073602;28;20048;-75
2022/12/20 06:41:40;;;;;;;951.38;152.18;;;-1.20;99.90;;;;;;5074203;28;20021;-77
2022/12/20 06:44:06;;;;;;;804.33;147.00;;;-1.10;99.90;;;;;;5072680;28;20024;-76
2022/12/20 06:46:32;;;;;;;916.35;133.45;;;-1.10;99.90;;;;;;5074524;28;20024;-75
2022/12/20 06:48:58;;;;;;;610.63;124.28;;;-1.20;99.90;;;;;;5074039;28;20124;-77
2022/12/20 06:51:24;;;;;;;549.38;120.05;;;-1.00;99.90;;;;;;5073917;28;20017;-77
2022/12/20 06:53:50;;;;;;;535.72;114.07;;;-1.00;99.90;;;;;;5072828;28;20020;-75
2022/12/20 06:56:16;;;;;;;688.47;136.35;;;-1.00;99.90;;;;;;5073871;28;20099;-76
2022/12/20 06:58:42;;;;;;;493.83;122.57;;;-1.00;99.90;;;;;;5074173;28;20112;-77
2022/12/20 07:01:08;;;;;;;764.28;154.15;;;-1.00;99.90;;;;;;5073928;28;20024;-78
2022/12/20 07:03:33;;;;;;;766.42;187.10;;;-0.90;99.90;;;;;;5073175;28;20077;-77
2022/12/20 07:05:59;;;;;;;837.03;132.07;;;-0.90;99.90;;;;;;5072794;28;20110;-77
2022/12/20 07:08:25;;;;;;;755.63;138.13;;;-0.90;99.90;;;;;;5093813;28;20024;-77
2022/12/20 07:10:54;;;;;;;682.78;141.50;;;-1.00;99.90;;;;;;5072729;28;20028;-76
2022/12/20 07:13:20;;;;;;;722.40;134.90;;;-0.90;99.90;;;;;;5081361;28;20451;-76
2022/12/20 07:15:45;;;;;;;732.78;138.48;;;-1.00;99.90;;;;;;5092137;28;20045;-76
2022/12/20 07:18:11;;;;;;;647.05;122.00;;;-0.90;99.90;;;;;;5082280;28;20441;-77
2022/12/20 07:20:39;;;;;;;545.78;118.45;;;-0.90;99.90;;;;;;5093475;28;20032;-79
2022/12/20 07:23:06;;;;;;;614.03;152.05;;;-1.00;99.90;;;;;;5053106;28;20017;-79
2022/12/20 07:25:31;;;;;;;662.60;197.77;;;-0.90;99.90;;;;;;5052141;28;20116;-77
2022/12/20 07:27:57;;;;;;;516.13;176.20;;;-0.90;99.90;;;;;;5050172;28;20021;-78
2022/12/20 07:30:23;;;;;;;518.03;143.30;;;-0.90;99.90;;;;;;5051082;28;20028;-78
2022/12/20 07:32:49;;;;;;;370.60;98.95;;;-0.80;99.90;;;;;;5052364;28;20021;-76
2022/12/20 07:35:15;;;;;;;373.33;94.07;;;-0.80;99.90;;;;;;5053405;28;20031;-78
2022/12/20 07:37:41;;;;;;;471.77;108.05;;;-0.80;99.90;;;;;;5053242;28;20452;-77
2022/12/20 07:40:08;;;;;;;576.72;148.65;;;-0.80;99.90;;;;;;5052092;28;20115;-77
2022/12/20 07:42:34;;;;;;;512.08;102.85;;;-0.80;99.90;;;;;;5052133;28;20032;-79
2022/12/20 07:44:59;;;;;;;442.52;101.05;;;-0.80;99.90;;;;;;5053401;28;20025;-79
2022/12/20 07:47:25;;;;;;;661.65;109.82;;;-0.80;99.90;;;;;;5053719;28;20024;-78
2022/12/20 07:49:51;;;;;;;691.42;147.90;;;-0.80;99.90;;;;;;5052174;28;20078;-76
2022/12/20 07:52:21;;;;;;;637.67;131.65;;;-0.80;99.90;;;;;;5056148;28;20029;-77
2022/12/20 07:54:54;;;;;;;622.67;147.98;;;-0.70;99.90;;;;;;5056016;28;20029;-77
2022/12/20 07:57:38;;;;;;;702.58;140.98;;;-0.70;99.90;;;;;;5056362;28;20025;-78
2022/12/20 08:00:05;;;;;;;579.70;143.25;;;-0.60;99.90;;;;;;5057204;28;20103;-78
2022/12/20 08:02:37;;;;;;;599.90;163.43;;;-0.60;99.90;;;;;;5055585;28;20024;-76
2022/12/20 08:05:06;;;;;;;730.83;156.43;;;-0.60;99.90;;;;;;5056846;28;20415;-76
2022/12/20 08:07:32;;;;;;;533.08;129.85;;;-0.50;99.90;;;;;;5056822;28;20017;-78
2022/12/20 08:10:00;;;;;;;544.65;135.38;;;-0.40;99.90;;;;;;5055540;28;20021;-78
2022/12/20 08:12:29;;;;;;;403.83;117.68;;;-0.40;99.90;;;;;;5056956;28;20021;-79
2022/12/20 08:14:56;;;;;;;413.58;108.25;;;-0.30;99.90;;;;;;5055575;28;20159;-77
2022/12/20 08:17:22;;;;;;;367.75;93.68;;;-0.50;99.90;;;;;;5056916;28;20017;-77
2022/12/20 08:19:50;;;;;;;372.08;103.00;;;-0.60;99.90;;;;;;5057202;28;20040;-77
2022/12/20 08:22:17;;;;;;;402.52;117.43;;;-0.50;99.90;;;;;;5056365;28;20519;-78
2022/12/20 08:24:43;;;;;;;351.00;95.15;;;-0.40;99.90;;;;;;5056664;28;20359;-78
2022/12/20 08:27:09;;;;;;;379.25;94.78;;;-0.40;99.90;;;;;;5056389;28;20025;-76
2022/12/20 08:29:34;;;;;;;414.92;111.13;;;-0.50;99.90;;;;;;5056304;28;20063;-77
2022/12/20 08:32:00;;;;;;;419.48;121.65;;;-0.40;99.90;;;;;;5055424;28;20052;-78
2022/12/20 08:34:26;;;;;;;469.40;92.40;;;-0.50;99.90;;;;;;5055864;28;20024;-77
2022/12/20 08:36:52;;;;;;;435.23;100.15;;;-0.50;99.90;;;;;;5055160;28;20448;-79
2022/12/20 08:39:18;;;;;;;396.33;99.22;;;-0.40;99.90;;;;;;5056552;28;20071;-76
2022/12/20 08:41:43;;;;;;;383.50;110.60;;;-0.30;99.90;;;;;;5056220;28;20103;-80
2022/12/20 08:44:09;;;;;;;371.85;102.05;;;-0.20;99.90;;;;;;5055947;28;20368;-77
2022/12/20 08:46:36;;;;;;;333.23;97.22;;;-0.30;99.90;;;;;;5056477;28;20029;-77
2022/12/20 08:49:02;;;;;;;341.50;96.85;;;-0.30;99.90;;;;;;5055589;28;20025;-79
2022/12/20 08:51:28;;;;;;;336.75;98.00;;;-0.20;99.90;;;;;;5055996;28;20032;-77
2022/12/20 08:53:54;;;;;;;280.83;85.45;;;-0.10;99.90;;;;;;5056189;28;20052;-76
2022/12/20 08:56:20;;;;;;;340.00;93.47;;;-0.20;99.90;;;;;;5056217;28;20364;-77
2022/12/20 08:58:46;;;;;;;302.80;91.85;;;-0.10;99.90;;;;;;5055979;28;20028;-78
2022/12/20 09:01:15;;;;;;;360.10;124.20;;;-0.10;99.90;;;;;;5056079;28;20017;-78
2022/12/20 09:03:42;;;;;;;329.02;97.70;;;0.00;99.90;;;;;;5054360;28;20029;-77
2022/12/20 09:06:12;;;;;;;350.40;98.13;;;0.00;99.90;;;;;;5054300;28;20028;-79
2022/12/20 09:08:39;;;;;;;347.13;101.82;;;0.00;99.90;;;;;;5056396;28;20027;-77
2022/12/20 09:11:07;;;;;;;385.20;106.05;;;0.00;99.90;;;;;;5054325;28;20032;-77
2022/12/20 09:13:34;;;;;;;383.75;113.63;;;0.00;99.90;;;;;;5054941;28;20029;-76
2022/12/20 09:16:04;;;;;;;417.23;117.75;;;0.10;99.90;;;;;;5055453;28;20055;-79
2022/12/20 09:18:31;;;;;;;419.27;118.50;;;0.20;99.90;;;;;;5055616;28;20094;-78
2022/12/20 09:21:04;;;;;;;429.90;118.30;;;0.20;99.90;;;;;;5055827;28;20104;-78
2022/12/20 09:23:31;;;;;;;391.60;115.45;;;0.20;99.90;;;;;;5055668;28;20029;-76
2022/12/20 09:26:04;;;;;;;321.23;99.47;;;0.30;99.90;;;;;;5053949;28;20029;-76
2022/12/20 09:28:31;;;;;;;342.83;102.05;;;0.20;99.90;;;;;;5054393;28;20045;-78
2022/12/20 09:31:02;;;;;;;324.38;100.22;;;0.30;99.90;;;;;;5054322;28;20036;-77
2022/12/20 09:33:29;;;;;;;355.15;107.85;;;0.30;99.90;;;;;;5055111;28;20071;-78
2022/12/20 09:35:55;;;;;;;362.75;106.43;;;0.40;99.90;;;;;;5070768;28;20032;-78
2022/12/20 09:38:21;;;;;;;372.20;113.00;;;0.40;99.90;;;;;;5055508;28;20071;-79
2022/12/20 09:40:50;;;;;;;328.33;103.57;;;0.50;99.90;;;;;;5053992;28;20021;-78
2022/12/20 09:43:16;;;;;;;353.80;108.10;;;0.40;99.90;;;;;;5055193;28;20455;-79
2022/12/20 09:45:46;;;;;;;312.80;103.43;;;0.50;99.90;;;;;;5055422;28;20062;-79
2022/12/20 09:48:37;;;;;;;260.77;89.22;;;0.80;99.90;;;;;;5054762;28;20371;-79
2022/12/20 09:51:17;;;;;;;291.35;97.20;;;1.00;99.90;;;;;;5054659;28;20029;-79
2022/12/20 09:54:26;;;;;;;229.93;75.50;;;1.10;99.90;;;;;;5054747;28;20369;-79
2022/12/20 09:57:08;;;;;;;249.32;86.78;;;1.10;99.90;;;;;;5041006;28;20117;-79
2022/12/20 09:59:36;;;;;;;241.93;77.57;;;1.20;99.90;;;;;;5055249;28;20021;-81
2022/12/20 10:02:10;;;;;;;247.50;86.82;;;1.20;99.90;;;;;;5054815;28;20104;-79
2022/12/20 10:04:36;;;;;;;266.10;94.50;;;1.50;99.90;;;;;;5054899;28;20452;-80
2022/12/20 10:07:29;;;;;;;189.57;68.18;;;1.80;99.90;;;;;;5054741;28;20090;-79
2022/12/20 10:10:02;;;;;;;206.05;78.03;;;1.80;99.90;;;;;;5054984;28;20085;-79
2022/12/20 10:12:52;;;;;;;271.27;107.15;;;1.70;99.90;;;;;;5054500;28;20100;-80
2022/12/20 10:16:05;;;;;;;243.77;87.55;;;1.60;99.90;;;;;;5032603;28;20029;-79
2022/12/20 10:19:15;;;;;;;271.88;101.32;;;1.40;99.90;;;;;;5050695;28;20091;-78
2022/12/20 10:21:53;;;;;;;239.77;88.95;;;1.30;99.90;;;;;;5012311;28;20033;-79
2022/12/20 10:24:26;;;;;;;263.67;95.07;;;1.90;99.90;;;;;;5012622;28;20128;-80
2022/12/20 10:26:52;;;;;;;207.57;78.45;;;3.60;99.90;;;;;;5012556;28;20045;-80
2022/12/20 10:29:19;;;;;;;155.05;61.75;;;3.80;99.90;;;;;;5012340;28;20029;-78
2022/12/20 10:31:48;;;;;;;140.25;58.22;;;3.40;99.90;;;;;;5012490;28;20373;-79
2022/12/20 10:34:14;;;;;;;176.52;70.63;;;3.10;99.90;;;;;;5012347;28;20028;-79
2022/12/20 10:36:40;;;;;;;172.00;69.75;;;3.50;99.90;;;;;;5012278;28;20021;-78
2022/12/20 10:39:08;;;;;;;159.18;67.95;;;3.60;99.90;;;;;;5012240;28;20072;-79
2022/12/20 10:41:39;;;;;;;178.88;84.03;;;4.40;99.90;;;;;;5012353;28;20100;-79
2022/12/20 10:44:16;;;;;;;196.63;83.95;;;5.00;99.90;;;;;;5011978;28;20477;-79
2022/12/20 10:46:45;;;;;;;207.35;87.60;;;4.90;99.90;;;;;;4995884;28;20037;-78
2022/12/20 10:49:31;;;;;;;143.07;62.90;;;5.00;99.90;;;;;;5012019;28;20030;-80
2022/12/20 10:52:03;;;;;;;120.30;57.03;;;5.60;99.90;;;;;;5026549;28;20033;-78
2022/12/20 10:54:31;;;;;;;;;;;6.10;99.90;;;;;;5054163;28;20114;-80
2022/12/20 10:57:00;;;;;;;122.47;55.45;;;6.20;99.90;;;;;;5052568;28;19952;-80
2022/12/20 10:59:35;;;;;;;119.28;52.50;;;6.70;98.80;;;;;;5054018;28;20027;-82
2022/12/20 11:02:20;;;;;;;116.20;50.75;;;6.00;95.30;;;;;;5053555;28;20022;-81
2022/12/20 11:05:18;;;;;;;114.75;54.72;;;6.00;95.30;;;;;;5053499;28;20411;-80
2022/12/20 11:07:55;;;;;;;109.10;48.08;;;5.40;96.70;;;;;;5054044;28;20029;-80
2022/12/20 11:10:24;;;;;;;124.57;54.70;;;6.00;97.90;;;;;;5054227;28;20024;-80
2022/12/20 11:13:01;;;;;;;121.15;53.13;;;6.30;97.80;;;;;;5053589;28;20017;-80
2022/12/20 11:15:31;;;;;;;109.35;51.08;;;6.10;96.30;;;;;;5052459;28;20112;-80
2022/12/20 11:18:16;;;;;;;110.82;50.47;;;6.10;96.20;;;;;;5053161;28;20371;-80
2022/12/20 11:20:51;;;;;;;118.28;53.15;;;5.10;99.20;;;;;;5053309;28;20410;-81
2022/12/20 11:23:23;;;;;;;141.70;66.57;;;5.50;99.90;;;;;;5053583;28;20090;-80
2022/12/20 11:26:22;;;;;;;146.52;66.72;;;5.80;99.60;;;;;;5057271;28;20464;-79
2022/12/20 11:29:16;;;;;;;116.38;53.35;;;6.00;99.40;;;;;;5059962;28;20103;-80
2022/12/20 11:32:04;;;;;;;129.32;59.50;;;6.00;98.80;;;;;;5058900;28;20028;-80
2022/12/20 11:34:52;;;;;;;160.48;74.78;;;6.20;97.90;;;;;;5060454;28;20025;-80
2022/12/20 11:37:20;;;;;;;148.43;67.05;;;6.20;99.60;;;;;;5058975;28;20052;-80
2022/12/20 11:40:10;;;;;;;161.52;74.60;;;6.30;98.60;;;;;;5059994;28;20090;-80
2022/12/20 11:43:08;;;;;;;161.00;75.43;;;6.30;99.50;;;;;;5059784;28;20116;-80
2022/12/20 11:46:18;;;;;;;179.80;84.57;;;5.60;99.90;;;;;;5059318;28;20063;-80
2022/12/20 11:48:59;;;;;;;183.88;80.47;;;5.00;99.90;;;;;;5040794;28;20035;-81
2022/12/20 11:51:36;;;;;;;198.82;89.82;;;4.40;99.90;;;;;;5060227;28;20464;-79
2022/12/20 11:54:12;;;;;;;196.82;84.43;;;4.10;99.90;;;;;;5059918;28;20107;-80
2022/12/20 11:56:51;;;;;;;188.65;79.97;;;3.80;99.90;;;;;;5060138;28;20610;-81
2022/12/20 11:59:43;;;;;;;177.68;76.90;;;3.60;99.90;;;;;;5058747;28;20107;-80
2022/12/20 12:02:11;;;;;;;188.48;80.10;;;3.20;99.90;;;;;;5060354;28;20522;-80
2022/12/20 12:04:43;;;;;;;215.25;91.20;;;3.10;99.90;;;;;;5059970;28;20071;-81
2022/12/20 12:07:16;;;;;;;172.38;73.10;;;2.90;99.90;;;;;;5059849;28;20104;-80
2022/12/20 12:09:51;;;;;;;174.40;73.35;;;2.70;99.90;;;;;;5059810;28;20411;-79
2022/12/20 12:12:28;;;;;;;175.30;67.90;;;2.80;99.90;;;;;;5059961;28;20363;-81
2022/12/20 12:15:12;;;;;;;191.13;75.82;;;2.60;99.90;;;;;;5058514;28;20025;-80
2022/12/20 12:17:49;;;;;;;188.45;72.78;;;2.60;99.90;;;;;;5059661;28;20095;-81
2022/12/20 12:20:15;;;;;;;187.55;68.97;;;2.60;99.90;;;;;;5059728;28;20020;-80
2022/12/20 12:22:42;;;;;;;165.75;65.13;;;2.40;99.90;;;;;;5060101;28;20360;-80
2022/12/20 12:25:14;;;;;;;170.40;67.38;;;2.40;99.90;;;;;;5059503;28;20024;-80
2022/12/20 12:27:40;;;;;;;163.75;67.25;;;2.30;99.90;;;;;;5059386;28;20364;-80
2022/12/20 12:30:06;;;;;;;182.55;77.57;;;2.20;99.90;;;;;;5058544;28;20029;-79
2022/12/20 12:32:46;;;;;;;177.52;73.30;;;2.20;99.90;;;;;;5059705;28;20025;-80
2022/12/20 12:35:33;;;;;;;166.02;69.18;;;2.10;99.90;;;;;;5058330;28;20028;-78
2022/12/20 12:38:37;;;;;;;212.30;88.00;;;2.10;99.90;;;;;;5054913;28;20082;-79